sensor_id;sensor_type;location;lat;lon;timestamp;P1;durP1;ratioP1;P2;durP2;ratioP2
72325;SDS011;60278;47.980;18.780;2024-02-15T00:01:32;23.92;;;12.88;;
72325;SDS011;60278;47.980;18.780;2024-02-15T00:04:34;26.95;;;14.38;;
72325;SDS011;60278;47.980;18.780;2024-02-15T00:07:36;27.20;;;13.50;;
72325;SDS011;60278;47.980;18.780;2024-02-15T00:10:38;25.48;;;14.73;;
72325;SDS011;60278;47.980;18.780;2024-02-15T00:13:40;40.07;;;21.93;;
72325;SDS011;60278;47.980;18.780;2024-02-15T00:16:42;43.05;;;21.67;;
72325;SDS011;60278;47.980;18.780;2024-02-15T00:19:44;43.38;;;23.42;;
72325;SDS011;60278;47.980;18.780;2024-02-15T00:22:47;43.78;;;23.40;;
72325;SDS011;60278;47.980;18.780;2024-02-15T00:25:50;43.30;;;21.42;;
72325;SDS011;60278;47.980;18.780;2024-02-15T00:28:52;43.17;;;23.43;;
72325;SDS011;60278;47.980;18.780;2024-02-15T00:31:54;48.47;;;22.80;;
72325;SDS011;60278;47.980;18.780;2024-02-15T00:34:57;39.38;;;21.20;;
72325;SDS011;60278;47.980;18.780;2024-02-15T00:37:59;37.78;;;20.80;;
72325;SDS011;60278;47.980;18.780;2024-02-15T00:41:01;38.60;;;21.77;;
72325;SDS011;60278;47.980;18.780;2024-02-15T00:44:04;37.87;;;19.90;;
72325;SDS011;60278;47.980;18.780;2024-02-15T00:47:07;37.40;;;19.77;;
72325;SDS011;60278;47.980;18.780;2024-02-15T00:50:09;34.95;;;19.35;;
72325;SDS011;60278;47.980;18.780;2024-02-15T00:53:12;37.15;;;18.60;;
72325;SDS011;60278;47.980;18.780;2024-02-15T00:56:14;37.25;;;19.15;;
72325;SDS011;60278;47.980;18.780;2024-02-15T00:59:16;36.10;;;19.93;;
72325;SDS011;60278;47.980;18.780;2024-02-15T01:02:18;28.08;;;15.55;;
72325;SDS011;60278;47.980;18.780;2024-02-15T01:05:20;28.67;;;15.13;;
72325;SDS011;60278;47.980;18.780;2024-02-15T01:08:23;27.90;;;16.00;;
72325;SDS011;60278;47.980;18.780;2024-02-15T01:11:25;28.95;;;15.00;;
72325;SDS011;60278;47.980;18.780;2024-02-15T01:14:30;25.13;;;12.80;;
72325;SDS011;60278;47.980;18.780;2024-02-15T01:17:32;28.48;;;14.82;;
72325;SDS011;60278;47.980;18.780;2024-02-15T01:20:34;31.35;;;19.23;;
72325;SDS011;60278;47.980;18.780;2024-02-15T01:23:38;28.25;;;16.75;;
72325;SDS011;60278;47.980;18.780;2024-02-15T01:26:40;28.40;;;15.40;;
72325;SDS011;60278;47.980;18.780;2024-02-15T01:29:43;24.63;;;13.90;;
72325;SDS011;60278;47.980;18.780;2024-02-15T01:32:45;27.42;;;14.50;;
72325;SDS011;60278;47.980;18.780;2024-02-15T01:35:47;31.85;;;15.95;;
72325;SDS011;60278;47.980;18.780;2024-02-15T01:38:50;24.48;;;15.05;;
72325;SDS011;60278;47.980;18.780;2024-02-15T01:41:52;24.30;;;15.63;;
72325;SDS011;60278;47.980;18.780;2024-02-15T01:44:57;31.17;;;15.90;;
72325;SDS011;60278;47.980;18.780;2024-02-15T01:48:00;26.40;;;15.57;;
72325;SDS011;60278;47.980;18.780;2024-02-15T01:51:04;31.60;;;17.73;;
72325;SDS011;60278;47.980;18.780;2024-02-15T01:54:07;33.33;;;16.65;;
72325;SDS011;60278;47.980;18.780;2024-02-15T01:57:09;31.40;;;16.60;;
72325;SDS011;60278;47.980;18.780;2024-02-15T02:00:11;28.93;;;15.60;;
72325;SDS011;60278;47.980;18.780;2024-02-15T02:03:14;28.02;;;15.93;;
72325;SDS011;60278;47.980;18.780;2024-02-15T02:06:17;27.90;;;16.52;;
72325;SDS011;60278;47.980;18.780;2024-02-15T02:09:19;30.92;;;16.63;;
72325;SDS011;60278;47.980;18.780;2024-02-15T02:12:21;25.92;;;15.45;;
72325;SDS011;60278;47.980;18.780;2024-02-15T02:15:24;29.90;;;16.23;;
72325;SDS011;60278;47.980;18.780;2024-02-15T02:18:26;29.55;;;15.70;;
72325;SDS011;60278;47.980;18.780;2024-02-15T02:21:28;32.80;;;16.10;;
72325;SDS011;60278;47.980;18.780;2024-02-15T02:24:30;28.65;;;15.48;;
72325;SDS011;60278;47.980;18.780;2024-02-15T02:27:38;28.80;;;15.23;;
72325;SDS011;60278;47.980;18.780;2024-02-15T02:30:40;25.53;;;15.10;;
72325;SDS011;60278;47.980;18.780;2024-02-15T02:33:47;26.00;;;15.20;;
72325;SDS011;60278;47.980;18.780;2024-02-15T02:36:50;25.33;;;15.73;;
72325;SDS011;60278;47.980;18.780;2024-02-15T02:39:53;28.48;;;16.02;;
72325;SDS011;60278;47.980;18.780;2024-02-15T02:42:55;34.08;;;18.40;;
72325;SDS011;60278;47.980;18.780;2024-02-15T02:45:58;33.13;;;19.17;;
72325;SDS011;60278;47.980;18.780;2024-02-15T02:49:00;35.83;;;17.88;;
72325;SDS011;60278;47.980;18.780;2024-02-15T02:52:03;28.58;;;16.90;;
72325;SDS011;60278;47.980;18.780;2024-02-15T02:55:05;29.52;;;17.35;;
72325;SDS011;60278;47.980;18.780;2024-02-15T02:58:10;28.83;;;18.38;;
72325;SDS011;60278;47.980;18.780;2024-02-15T03:01:12;27.63;;;16.20;;
72325;SDS011;60278;47.980;18.780;2024-02-15T03:04:15;29.70;;;17.63;;
72325;SDS011;60278;47.980;18.780;2024-02-15T03:07:20;28.67;;;16.63;;
72325;SDS011;60278;47.980;18.780;2024-02-15T03:10:25;30.83;;;16.75;;
72325;SDS011;60278;47.980;18.780;2024-02-15T03:13:27;31.15;;;17.13;;
72325;SDS011;60278;47.980;18.780;2024-02-15T03:16:30;31.83;;;17.80;;
72325;SDS011;60278;47.980;18.780;2024-02-15T03:19:32;32.70;;;16.75;;
72325;SDS011;60278;47.980;18.780;2024-02-15T03:22:34;26.60;;;16.58;;
72325;SDS011;60278;47.980;18.780;2024-02-15T03:25:36;27.08;;;15.88;;
72325;SDS011;60278;47.980;18.780;2024-02-15T03:28:39;29.58;;;16.85;;
72325;SDS011;60278;47.980;18.780;2024-02-15T03:31:41;26.83;;;16.87;;
72325;SDS011;60278;47.980;18.780;2024-02-15T03:34:43;31.85;;;18.02;;
72325;SDS011;60278;47.980;18.780;2024-02-15T03:37:45;28.85;;;16.95;;
72325;SDS011;60278;47.980;18.780;2024-02-15T03:40:47;31.30;;;17.30;;
72325;SDS011;60278;47.980;18.780;2024-02-15T03:43:49;29.70;;;17.77;;
72325;SDS011;60278;47.980;18.780;2024-02-15T03:46:52;28.10;;;16.90;;
72325;SDS011;60278;47.980;18.780;2024-02-15T03:49:56;31.33;;;16.27;;
72325;SDS011;60278;47.980;18.780;2024-02-15T03:52:58;27.65;;;15.82;;
72325;SDS011;60278;47.980;18.780;2024-02-15T03:56:05;29.25;;;16.20;;
72325;SDS011;60278;47.980;18.780;2024-02-15T03:59:08;33.47;;;17.55;;
72325;SDS011;60278;47.980;18.780;2024-02-15T04:02:10;34.30;;;18.10;;
72325;SDS011;60278;47.980;18.780;2024-02-15T04:05:16;34.05;;;18.13;;
72325;SDS011;60278;47.980;18.780;2024-02-15T04:08:21;34.50;;;18.52;;
72325;SDS011;60278;47.980;18.780;2024-02-15T04:11:23;31.83;;;18.75;;
72325;SDS011;60278;47.980;18.780;2024-02-15T04:14:25;28.02;;;17.65;;
72325;SDS011;60278;47.980;18.780;2024-02-15T04:17:27;26.70;;;16.17;;
72325;SDS011;60278;47.980;18.780;2024-02-15T04:20:29;29.55;;;16.27;;
72325;SDS011;60278;47.980;18.780;2024-02-15T04:23:31;30.10;;;16.83;;
72325;SDS011;60278;47.980;18.780;2024-02-15T04:26:33;32.17;;;15.30;;
72325;SDS011;60278;47.980;18.780;2024-02-15T04:29:36;23.48;;;14.00;;
72325;SDS011;60278;47.980;18.780;2024-02-15T04:32:39;29.70;;;16.07;;
72325;SDS011;60278;47.980;18.780;2024-02-15T04:35:42;29.75;;;15.38;;
72325;SDS011;60278;47.980;18.780;2024-02-15T04:38:45;27.88;;;16.25;;
72325;SDS011;60278;47.980;18.780;2024-02-15T04:41:47;24.55;;;14.48;;
72325;SDS011;60278;47.980;18.780;2024-02-15T04:44:49;30.85;;;18.08;;
72325;SDS011;60278;47.980;18.780;2024-02-15T04:47:55;28.20;;;16.07;;
72325;SDS011;60278;47.980;18.780;2024-02-15T04:50:59;31.35;;;15.45;;
72325;SDS011;60278;47.980;18.780;2024-02-15T04:54:01;32.28;;;16.58;;
72325;SDS011;60278;47.980;18.780;2024-02-15T04:57:03;32.20;;;16.52;;
72325;SDS011;60278;47.980;18.780;2024-02-15T05:00:06;31.33;;;15.48;;
72325;SDS011;60278;47.980;18.780;2024-02-15T05:03:13;23.67;;;13.43;;
72325;SDS011;60278;47.980;18.780;2024-02-15T05:06:16;32.47;;;16.67;;
72325;SDS011;60278;47.980;18.780;2024-02-15T05:09:18;28.33;;;15.95;;
72325;SDS011;60278;47.980;18.780;2024-02-15T05:12:23;30.58;;;16.30;;
72325;SDS011;60278;47.980;18.780;2024-02-15T05:15:26;27.73;;;16.10;;
72325;SDS011;60278;47.980;18.780;2024-02-15T05:18:28;29.77;;;17.33;;
72325;SDS011;60278;47.980;18.780;2024-02-15T05:21:32;29.98;;;16.42;;
72325;SDS011;60278;47.980;18.780;2024-02-15T05:24:35;52.65;;;26.25;;
72325;SDS011;60278;47.980;18.780;2024-02-15T05:27:38;38.13;;;20.67;;
72325;SDS011;60278;47.980;18.780;2024-02-15T05:30:40;35.70;;;19.70;;
72325;SDS011;60278;47.980;18.780;2024-02-15T05:33:42;39.33;;;20.13;;
72325;SDS011;60278;47.980;18.780;2024-02-15T05:36:46;104.78;;;46.20;;
72325;SDS011;60278;47.980;18.780;2024-02-15T05:39:50;55.53;;;27.40;;
72325;SDS011;60278;47.980;18.780;2024-02-15T05:42:55;40.75;;;22.30;;
72325;SDS011;60278;47.980;18.780;2024-02-15T05:45:58;50.78;;;24.23;;
72325;SDS011;60278;47.980;18.780;2024-02-15T05:49:01;48.03;;;21.73;;
72325;SDS011;60278;47.980;18.780;2024-02-15T05:52:06;35.20;;;19.42;;
72325;SDS011;60278;47.980;18.780;2024-02-15T05:55:10;39.33;;;20.17;;
72325;SDS011;60278;47.980;18.780;2024-02-15T05:58:12;42.45;;;19.80;;
72325;SDS011;60278;47.980;18.780;2024-02-15T06:01:15;42.30;;;21.23;;
72325;SDS011;60278;47.980;18.780;2024-02-15T06:04:18;38.13;;;18.57;;
72325;SDS011;60278;47.980;18.780;2024-02-15T06:07:20;35.25;;;17.85;;
72325;SDS011;60278;47.980;18.780;2024-02-15T06:10:22;31.48;;;17.98;;
72325;SDS011;60278;47.980;18.780;2024-02-15T06:13:25;34.85;;;18.38;;
72325;SDS011;60278;47.980;18.780;2024-02-15T06:16:27;38.15;;;18.95;;
72325;SDS011;60278;47.980;18.780;2024-02-15T06:19:29;35.70;;;19.97;;
72325;SDS011;60278;47.980;18.780;2024-02-15T06:22:31;40.40;;;19.60;;
72325;SDS011;60278;47.980;18.780;2024-02-15T06:25:34;37.33;;;19.80;;
72325;SDS011;60278;47.980;18.780;2024-02-15T06:28:37;33.78;;;18.60;;
72325;SDS011;60278;47.980;18.780;2024-02-15T06:31:57;33.75;;;17.95;;
72325;SDS011;60278;47.980;18.780;2024-02-15T06:35:18;32.00;;;17.47;;
72325;SDS011;60278;47.980;18.780;2024-02-15T06:38:39;31.02;;;17.48;;
72325;SDS011;60278;47.980;18.780;2024-02-15T06:41:59;39.33;;;19.08;;
72325;SDS011;60278;47.980;18.780;2024-02-15T06:45:03;36.10;;;17.08;;
72325;SDS011;60278;47.980;18.780;2024-02-15T06:48:05;35.00;;;17.33;;
72325;SDS011;60278;47.980;18.780;2024-02-15T06:51:11;24.83;;;16.70;;
72325;SDS011;60278;47.980;18.780;2024-02-15T06:54:15;38.00;;;20.45;;
72325;SDS011;60278;47.980;18.780;2024-02-15T06:57:20;48.67;;;23.85;;
72325;SDS011;60278;47.980;18.780;2024-02-15T07:00:23;27.48;;;16.33;;
72325;SDS011;60278;47.980;18.780;2024-02-15T07:03:28;31.45;;;17.70;;
72325;SDS011;60278;47.980;18.780;2024-02-15T07:06:31;39.83;;;21.60;;
72325;SDS011;60278;47.980;18.780;2024-02-15T07:09:34;30.95;;;16.25;;
72325;SDS011;60278;47.980;18.780;2024-02-15T07:12:36;26.33;;;14.18;;
72325;SDS011;60278;47.980;18.780;2024-02-15T07:15:39;26.65;;;14.13;;
72325;SDS011;60278;47.980;18.780;2024-02-15T07:18:41;23.83;;;13.80;;
72325;SDS011;60278;47.980;18.780;2024-02-15T07:21:43;35.80;;;17.33;;
72325;SDS011;60278;47.980;18.780;2024-02-15T07:24:46;36.70;;;18.85;;
72325;SDS011;60278;47.980;18.780;2024-02-15T07:27:48;23.52;;;14.98;;
72325;SDS011;60278;47.980;18.780;2024-02-15T07:30:53;27.50;;;15.60;;
72325;SDS011;60278;47.980;18.780;2024-02-15T07:33:56;33.35;;;19.67;;
72325;SDS011;60278;47.980;18.780;2024-02-15T07:37:01;33.77;;;18.63;;
72325;SDS011;60278;47.980;18.780;2024-02-15T07:40:04;31.60;;;19.45;;
72325;SDS011;60278;47.980;18.780;2024-02-15T07:43:06;32.63;;;17.58;;
72325;SDS011;60278;47.980;18.780;2024-02-15T07:46:11;32.88;;;16.33;;
72325;SDS011;60278;47.980;18.780;2024-02-15T07:49:13;25.02;;;14.45;;
72325;SDS011;60278;47.980;18.780;2024-02-15T07:52:15;19.53;;;11.30;;
72325;SDS011;60278;47.980;18.780;2024-02-15T07:55:18;21.70;;;12.00;;
72325;SDS011;60278;47.980;18.780;2024-02-15T07:58:21;20.98;;;12.23;;
72325;SDS011;60278;47.980;18.780;2024-02-15T08:01:24;21.13;;;11.70;;
72325;SDS011;60278;47.980;18.780;2024-02-15T08:04:27;19.88;;;10.18;;
72325;SDS011;60278;47.980;18.780;2024-02-15T08:07:30;14.97;;;9.10;;
72325;SDS011;60278;47.980;18.780;2024-02-15T08:10:35;16.20;;;9.35;;
72325;SDS011;60278;47.980;18.780;2024-02-15T08:13:37;17.13;;;9.32;;
72325;SDS011;60278;47.980;18.780;2024-02-15T08:19:59;20.35;;;9.93;;
72325;SDS011;60278;47.980;18.780;2024-02-15T08:23:02;15.67;;;9.90;;
72325;SDS011;60278;47.980;18.780;2024-02-15T08:26:04;19.13;;;9.30;;
72325;SDS011;60278;47.980;18.780;2024-02-15T08:29:06;18.50;;;10.82;;
72325;SDS011;60278;47.980;18.780;2024-02-15T08:32:08;28.20;;;14.05;;
72325;SDS011;60278;47.980;18.780;2024-02-15T08:35:12;21.52;;;12.05;;
72325;SDS011;60278;47.980;18.780;2024-02-15T08:38:14;15.63;;;9.53;;
72325;SDS011;60278;47.980;18.780;2024-02-15T08:41:16;23.83;;;11.70;;
72325;SDS011;60278;47.980;18.780;2024-02-15T08:44:22;23.48;;;12.52;;
72325;SDS011;60278;47.980;18.780;2024-02-15T08:47:24;28.70;;;17.08;;
72325;SDS011;60278;47.980;18.780;2024-02-15T08:50:26;27.77;;;16.83;;
72325;SDS011;60278;47.980;18.780;2024-02-15T08:53:30;25.90;;;15.10;;
72325;SDS011;60278;47.980;18.780;2024-02-15T08:56:35;20.73;;;13.00;;
72325;SDS011;60278;47.980;18.780;2024-02-15T08:59:38;19.05;;;10.80;;
72325;SDS011;60278;47.980;18.780;2024-02-15T09:02:41;20.25;;;11.02;;
72325;SDS011;60278;47.980;18.780;2024-02-15T09:05:43;23.10;;;12.38;;
72325;SDS011;60278;47.980;18.780;2024-02-15T09:08:46;19.43;;;10.43;;
72325;SDS011;60278;47.980;18.780;2024-02-15T09:11:51;20.02;;;10.23;;
72325;SDS011;60278;47.980;18.780;2024-02-15T09:14:53;26.88;;;11.68;;
72325;SDS011;60278;47.980;18.780;2024-02-15T09:17:55;18.60;;;11.25;;
72325;SDS011;60278;47.980;18.780;2024-02-15T09:20:59;20.25;;;10.93;;
72325;SDS011;60278;47.980;18.780;2024-02-15T09:24:02;19.17;;;10.20;;
72325;SDS011;60278;47.980;18.780;2024-02-15T09:27:04;24.80;;;13.15;;
72325;SDS011;60278;47.980;18.780;2024-02-15T09:30:10;18.42;;;11.57;;
72325;SDS011;60278;47.980;18.780;2024-02-15T09:33:12;18.75;;;11.18;;
72325;SDS011;60278;47.980;18.780;2024-02-15T09:36:14;22.17;;;12.07;;
72325;SDS011;60278;47.980;18.780;2024-02-15T09:39:18;21.90;;;11.70;;
72325;SDS011;60278;47.980;18.780;2024-02-15T09:42:21;23.85;;;11.77;;
72325;SDS011;60278;47.980;18.780;2024-02-15T09:45:23;20.58;;;12.30;;
72325;SDS011;60278;47.980;18.780;2024-02-15T09:48:28;24.17;;;13.18;;
72325;SDS011;60278;47.980;18.780;2024-02-15T09:51:33;21.25;;;12.07;;
72325;SDS011;60278;47.980;18.780;2024-02-15T09:54:36;17.43;;;10.73;;
72325;SDS011;60278;47.980;18.780;2024-02-15T09:57:46;17.38;;;9.63;;
72325;SDS011;60278;47.980;18.780;2024-02-15T10:00:49;15.93;;;9.00;;
72325;SDS011;60278;47.980;18.780;2024-02-15T10:03:51;18.27;;;10.35;;
72325;SDS011;60278;47.980;18.780;2024-02-15T10:06:54;15.23;;;8.50;;
72325;SDS011;60278;47.980;18.780;2024-02-15T10:09:56;15.83;;;7.80;;
72325;SDS011;60278;47.980;18.780;2024-02-15T10:13:18;12.95;;;8.70;;
72325;SDS011;60278;47.980;18.780;2024-02-15T10:16:24;12.48;;;7.75;;
72325;SDS011;60278;47.980;18.780;2024-02-15T10:19:28;12.43;;;7.40;;
72325;SDS011;60278;47.980;18.780;2024-02-15T10:22:36;12.10;;;7.95;;
72325;SDS011;60278;47.980;18.780;2024-02-15T10:25:39;12.80;;;8.17;;
72325;SDS011;60278;47.980;18.780;2024-02-15T10:28:41;13.32;;;7.90;;
72325;SDS011;60278;47.980;18.780;2024-02-15T10:31:52;13.48;;;8.02;;
72325;SDS011;60278;47.980;18.780;2024-02-15T10:34:54;14.05;;;8.82;;
72325;SDS011;60278;47.980;18.780;2024-02-15T10:38:09;17.25;;;9.95;;
72325;SDS011;60278;47.980;18.780;2024-02-15T10:41:12;12.77;;;8.77;;
72325;SDS011;60278;47.980;18.780;2024-02-15T10:44:15;16.15;;;8.43;;
72325;SDS011;60278;47.980;18.780;2024-02-15T10:47:18;15.52;;;9.35;;
72325;SDS011;60278;47.980;18.780;2024-02-15T10:50:21;20.73;;;11.32;;
72325;SDS011;60278;47.980;18.780;2024-02-15T10:53:27;21.98;;;11.18;;
72325;SDS011;60278;47.980;18.780;2024-02-15T10:56:33;15.27;;;10.47;;
72325;SDS011;60278;47.980;18.780;2024-02-15T10:59:38;16.48;;;9.82;;
72325;SDS011;60278;47.980;18.780;2024-02-15T11:02:46;21.10;;;12.23;;
72325;SDS011;60278;47.980;18.780;2024-02-15T11:05:51;16.38;;;10.15;;
72325;SDS011;60278;47.980;18.780;2024-02-15T11:08:54;23.52;;;11.50;;
72325;SDS011;60278;47.980;18.780;2024-02-15T11:11:57;17.10;;;9.33;;
72325;SDS011;60278;47.980;18.780;2024-02-15T11:14:59;17.85;;;10.40;;
72325;SDS011;60278;47.980;18.780;2024-02-15T11:18:05;16.67;;;10.20;;
72325;SDS011;60278;47.980;18.780;2024-02-15T11:21:08;19.73;;;10.48;;
72325;SDS011;60278;47.980;18.780;2024-02-15T11:24:31;15.80;;;9.63;;
72325;SDS011;60278;47.980;18.780;2024-02-15T11:27:39;19.03;;;9.67;;
72325;SDS011;60278;47.980;18.780;2024-02-15T11:30:42;18.60;;;9.60;;
72325;SDS011;60278;47.980;18.780;2024-02-15T11:33:47;18.60;;;9.63;;
72325;SDS011;60278;47.980;18.780;2024-02-15T11:36:50;17.05;;;9.82;;
72325;SDS011;60278;47.980;18.780;2024-02-15T11:39:58;16.98;;;9.73;;
72325;SDS011;60278;47.980;18.780;2024-02-15T11:43:00;20.00;;;9.97;;
72325;SDS011;60278;47.980;18.780;2024-02-15T11:46:06;16.63;;;9.50;;
72325;SDS011;60278;47.980;18.780;2024-02-15T11:49:14;15.48;;;9.68;;
72325;SDS011;60278;47.980;18.780;2024-02-15T11:52:19;18.75;;;11.60;;
72325;SDS011;60278;47.980;18.780;2024-02-15T11:55:21;18.17;;;10.68;;
72325;SDS011;60278;47.980;18.780;2024-02-15T11:58:24;22.57;;;9.93;;
72325;SDS011;60278;47.980;18.780;2024-02-15T12:01:32;17.50;;;9.73;;
72325;SDS011;60278;47.980;18.780;2024-02-15T12:04:53;21.65;;;10.38;;
72325;SDS011;60278;47.980;18.780;2024-02-15T12:08:14;26.90;;;10.57;;
72325;SDS011;60278;47.980;18.780;2024-02-15T12:11:35;16.88;;;10.13;;
72325;SDS011;60278;47.980;18.780;2024-02-15T12:14:59;15.70;;;9.10;;
72325;SDS011;60278;47.980;18.780;2024-02-15T12:18:20;20.23;;;9.63;;
72325;SDS011;60278;47.980;18.780;2024-02-15T12:21:41;18.65;;;10.30;;
72325;SDS011;60278;47.980;18.780;2024-02-15T12:24:43;17.88;;;9.43;;
72325;SDS011;60278;47.980;18.780;2024-02-15T12:27:45;26.40;;;10.32;;
72325;SDS011;60278;47.980;18.780;2024-02-15T12:30:48;18.07;;;9.60;;
72325;SDS011;60278;47.980;18.780;2024-02-15T12:34:00;17.90;;;9.50;;
72325;SDS011;60278;47.980;18.780;2024-02-15T12:37:06;19.80;;;9.57;;
72325;SDS011;60278;47.980;18.780;2024-02-15T12:40:11;20.60;;;10.00;;
72325;SDS011;60278;47.980;18.780;2024-02-15T12:43:17;19.88;;;10.13;;
72325;SDS011;60278;47.980;18.780;2024-02-15T12:46:19;26.27;;;11.13;;
72325;SDS011;60278;47.980;18.780;2024-02-15T12:52:33;21.90;;;11.18;;
72325;SDS011;60278;47.980;18.780;2024-02-15T12:55:36;25.48;;;11.38;;
72325;SDS011;60278;47.980;18.780;2024-02-15T12:58:39;26.38;;;13.23;;
72325;SDS011;60278;47.980;18.780;2024-02-15T13:01:42;25.53;;;12.60;;
72325;SDS011;60278;47.980;18.780;2024-02-15T13:04:46;19.08;;;10.38;;
72325;SDS011;60278;47.980;18.780;2024-02-15T13:07:49;19.85;;;11.02;;
72325;SDS011;60278;47.980;18.780;2024-02-15T13:10:51;22.65;;;12.02;;
72325;SDS011;60278;47.980;18.780;2024-02-15T13:13:53;20.52;;;11.45;;
72325;SDS011;60278;47.980;18.780;2024-02-15T13:16:57;25.13;;;12.97;;
72325;SDS011;60278;47.980;18.780;2024-02-15T13:19:59;23.83;;;12.98;;
72325;SDS011;60278;47.980;18.780;2024-02-15T13:23:07;20.70;;;11.55;;
72325;SDS011;60278;47.980;18.780;2024-02-15T13:26:24;25.13;;;12.77;;
72325;SDS011;60278;47.980;18.780;2024-02-15T13:29:27;25.77;;;14.07;;
72325;SDS011;60278;47.980;18.780;2024-02-15T13:32:29;21.67;;;12.03;;
72325;SDS011;60278;47.980;18.780;2024-02-15T13:35:31;21.33;;;11.77;;
72325;SDS011;60278;47.980;18.780;2024-02-15T13:38:34;20.70;;;12.00;;
72325;SDS011;60278;47.980;18.780;2024-02-15T13:41:36;23.25;;;11.23;;
72325;SDS011;60278;47.980;18.780;2024-02-15T13:44:38;25.02;;;11.38;;
72325;SDS011;60278;47.980;18.780;2024-02-15T13:47:41;26.70;;;12.57;;
72325;SDS011;60278;47.980;18.780;2024-02-15T13:50:45;31.45;;;16.30;;
72325;SDS011;60278;47.980;18.780;2024-02-15T13:53:48;27.65;;;15.55;;
72325;SDS011;60278;47.980;18.780;2024-02-15T13:56:50;41.50;;;20.33;;
72325;SDS011;60278;47.980;18.780;2024-02-15T13:59:52;22.92;;;13.05;;
72325;SDS011;60278;47.980;18.780;2024-02-15T14:02:55;18.60;;;11.60;;
72325;SDS011;60278;47.980;18.780;2024-02-15T14:05:57;20.92;;;10.98;;
72325;SDS011;60278;47.980;18.780;2024-02-15T14:09:00;21.65;;;12.65;;
72325;SDS011;60278;47.980;18.780;2024-02-15T14:12:02;21.15;;;12.77;;
72325;SDS011;60278;47.980;18.780;2024-02-15T14:15:07;23.10;;;12.77;;
72325;SDS011;60278;47.980;18.780;2024-02-15T14:18:10;20.20;;;11.93;;
72325;SDS011;60278;47.980;18.780;2024-02-15T14:21:13;23.70;;;12.68;;
72325;SDS011;60278;47.980;18.780;2024-02-15T14:24:18;30.17;;;13.40;;
72325;SDS011;60278;47.980;18.780;2024-02-15T14:27:23;42.05;;;20.00;;
72325;SDS011;60278;47.980;18.780;2024-02-15T14:30:25;27.20;;;14.00;;
72325;SDS011;60278;47.980;18.780;2024-02-15T14:33:45;32.13;;;13.87;;
72325;SDS011;60278;47.980;18.780;2024-02-15T14:36:48;23.80;;;13.48;;
72325;SDS011;60278;47.980;18.780;2024-02-15T14:39:51;20.05;;;11.77;;
72325;SDS011;60278;47.980;18.780;2024-02-15T14:42:53;23.77;;;12.43;;
72325;SDS011;60278;47.980;18.780;2024-02-15T14:45:58;20.65;;;12.30;;
72325;SDS011;60278;47.980;18.780;2024-02-15T14:49:03;21.93;;;12.37;;
72325;SDS011;60278;47.980;18.780;2024-02-15T14:52:06;22.00;;;13.30;;
72325;SDS011;60278;47.980;18.780;2024-02-15T14:55:09;43.13;;;22.40;;
72325;SDS011;60278;47.980;18.780;2024-02-15T14:58:14;34.55;;;20.10;;
72325;SDS011;60278;47.980;18.780;2024-02-15T15:01:19;33.60;;;17.23;;
72325;SDS011;60278;47.980;18.780;2024-02-15T15:04:22;27.47;;;14.53;;
72325;SDS011;60278;47.980;18.780;2024-02-15T15:07:24;28.05;;;16.23;;
72325;SDS011;60278;47.980;18.780;2024-02-15T15:10:45;29.58;;;16.70;;
72325;SDS011;60278;47.980;18.780;2024-02-15T15:14:06;29.75;;;17.83;;
72325;SDS011;60278;47.980;18.780;2024-02-15T15:17:08;33.20;;;20.05;;
72325;SDS011;60278;47.980;18.780;2024-02-15T15:20:12;43.27;;;22.87;;
72325;SDS011;60278;47.980;18.780;2024-02-15T15:23:14;45.85;;;25.17;;
72325;SDS011;60278;47.980;18.780;2024-02-15T15:26:20;41.05;;;26.30;;
72325;SDS011;60278;47.980;18.780;2024-02-15T15:29:23;46.13;;;26.27;;
72325;SDS011;60278;47.980;18.780;2024-02-15T15:32:25;28.48;;;18.20;;
72325;SDS011;60278;47.980;18.780;2024-02-15T15:35:29;31.93;;;16.27;;
72325;SDS011;60278;47.980;18.780;2024-02-15T15:38:34;34.35;;;20.73;;
72325;SDS011;60278;47.980;18.780;2024-02-15T15:41:36;73.00;;;41.45;;
72325;SDS011;60278;47.980;18.780;2024-02-15T15:44:39;67.13;;;42.08;;
72325;SDS011;60278;47.980;18.780;2024-02-15T15:47:42;71.93;;;41.42;;
72325;SDS011;60278;47.980;18.780;2024-02-15T15:50:45;58.57;;;35.90;;
72325;SDS011;60278;47.980;18.780;2024-02-15T15:53:47;89.65;;;50.15;;
72325;SDS011;60278;47.980;18.780;2024-02-15T15:56:51;75.65;;;42.83;;
72325;SDS011;60278;47.980;18.780;2024-02-15T15:59:58;62.08;;;37.70;;
72325;SDS011;60278;47.980;18.780;2024-02-15T16:03:00;69.75;;;43.40;;
72325;SDS011;60278;47.980;18.780;2024-02-15T16:06:03;104.33;;;48.63;;
72325;SDS011;60278;47.980;18.780;2024-02-15T16:09:07;46.80;;;27.85;;
72325;SDS011;60278;47.980;18.780;2024-02-15T16:12:12;50.13;;;28.15;;
72325;SDS011;60278;47.980;18.780;2024-02-15T16:15:21;38.47;;;24.83;;
72325;SDS011;60278;47.980;18.780;2024-02-15T16:18:23;32.90;;;19.20;;
72325;SDS011;60278;47.980;18.780;2024-02-15T16:21:26;29.10;;;18.80;;
72325;SDS011;60278;47.980;18.780;2024-02-15T16:24:29;48.08;;;27.23;;
72325;SDS011;60278;47.980;18.780;2024-02-15T16:27:38;62.50;;;30.35;;
72325;SDS011;60278;47.980;18.780;2024-02-15T16:30:40;42.10;;;21.95;;
72325;SDS011;60278;47.980;18.780;2024-02-15T16:33:42;46.80;;;22.48;;
72325;SDS011;60278;47.980;18.780;2024-02-15T16:36:45;51.60;;;25.37;;
72325;SDS011;60278;47.980;18.780;2024-02-15T16:39:47;105.45;;;43.13;;
72325;SDS011;60278;47.980;18.780;2024-02-15T16:42:49;81.72;;;33.42;;
72325;SDS011;60278;47.980;18.780;2024-02-15T16:45:53;48.00;;;23.60;;
72325;SDS011;60278;47.980;18.780;2024-02-15T16:48:55;32.90;;;19.20;;
72325;SDS011;60278;47.980;18.780;2024-02-15T16:52:00;89.43;;;39.43;;
72325;SDS011;60278;47.980;18.780;2024-02-15T16:55:05;65.75;;;32.80;;
72325;SDS011;60278;47.980;18.780;2024-02-15T16:58:08;72.30;;;31.05;;
72325;SDS011;60278;47.980;18.780;2024-02-15T17:01:10;41.78;;;21.45;;
72325;SDS011;60278;47.980;18.780;2024-02-15T17:04:12;41.97;;;21.77;;
72325;SDS011;60278;47.980;18.780;2024-02-15T17:07:17;47.63;;;24.50;;
72325;SDS011;60278;47.980;18.780;2024-02-15T17:10:23;66.63;;;28.08;;
72325;SDS011;60278;47.980;18.780;2024-02-15T17:13:26;63.20;;;30.08;;
72325;SDS011;60278;47.980;18.780;2024-02-15T17:16:28;53.22;;;26.00;;
72325;SDS011;60278;47.980;18.780;2024-02-15T17:19:30;56.50;;;27.75;;
72325;SDS011;60278;47.980;18.780;2024-02-15T17:22:36;57.40;;;25.50;;
72325;SDS011;60278;47.980;18.780;2024-02-15T17:25:38;58.13;;;28.75;;
72325;SDS011;60278;47.980;18.780;2024-02-15T17:28:40;59.10;;;28.35;;
72325;SDS011;60278;47.980;18.780;2024-02-15T17:31:42;62.40;;;30.85;;
72325;SDS011;60278;47.980;18.780;2024-02-15T17:34:44;67.95;;;30.60;;
72325;SDS011;60278;47.980;18.780;2024-02-15T17:37:46;94.23;;;46.13;;
72325;SDS011;60278;47.980;18.780;2024-02-15T17:40:48;69.40;;;35.85;;
72325;SDS011;60278;47.980;18.780;2024-02-15T17:43:51;55.90;;;26.17;;
72325;SDS011;60278;47.980;18.780;2024-02-15T17:46:58;52.35;;;25.48;;
72325;SDS011;60278;47.980;18.780;2024-02-15T17:50:02;38.30;;;22.65;;